Time;durP1;ratioP1;P1;durP2;ratioP2;P2;SDS_P1;SDS_P2;PMS_P1;PMS_P2;Temp;Humidity;BMP_temperature;BMP_pressure;BME280_temperature;BME280_humidity;BME280_pressure;Samples;Min_cycle;Max_cycle;Signal;HPM_P1;HPM_P2
2024/01/07 00:00:51;;;;;;;11.65;6.47;;;-0.20;99.90;;;;;;5019711;28;20096;-86
2024/01/07 00:03:18;;;;;;;13.52;7.45;;;-0.20;99.90;;;;;;4995842;28;20046;-86
2024/01/07 00:05:45;;;;;;;12.10;6.50;;;-0.20;99.90;;;;;;4983622;28;20696;-85
2024/01/07 00:08:11;;;;;;;13.40;6.22;;;-0.30;99.90;;;;;;5007391;28;20078;-86
2024/01/07 00:10:38;;;;;;;11.90;6.20;;;0.90;99.90;;;;;;5016793;28;20045;-84
2024/01/07 00:13:04;;;;;;;13.05;6.13;;;-0.30;99.90;;;;;;5012130;28;20038;-85
2024/01/07 00:15:31;;;;;;;12.80;5.70;;;-0.30;99.90;;;;;;5011027;28;20030;-85
2024/01/07 00:17:58;;;;;;;11.15;5.70;;;-0.30;99.90;;;;;;4995325;28;20093;-86
2024/01/07 00:20:24;;;;;;;12.40;6.63;;;-0.30;99.90;;;;;;4995291;28;20042;-85
2024/01/07 00:22:51;;;;;;;10.65;5.45;;;0.20;99.90;;;;;;5011991;28;20053;-86
2024/01/07 00:25:18;;;;;;;10.48;5.65;;;0.40;99.90;;;;;;4995104;28;20495;-85
2024/01/07 00:27:45;;;;;;;11.13;5.47;;;-0.30;99.90;;;;;;4999307;28;20042;-86
2024/01/07 00:30:11;;;;;;;10.38;5.50;;;-0.30;99.90;;;;;;5000344;28;20035;-85
2024/01/07 00:32:38;;;;;;;11.55;6.07;;;-0.30;99.90;;;;;;4995055;28;20034;-84
2024/01/07 00:35:05;;;;;;;10.18;5.50;;;-0.30;99.90;;;;;;5011077;28;20041;-84
2024/01/07 00:37:34;;;;;;;10.45;5.97;;;-0.40;99.90;;;;;;5003611;28;20037;-85
2024/01/07 00:40:01;;;;;;;9.57;5.10;;;-0.30;99.90;;;;;;5001551;28;20406;-86
2024/01/07 00:42:28;;;;;;;12.82;6.22;;;0.60;99.90;;;;;;5005749;28;20126;-86
2024/01/07 00:44:54;;;;;;;10.60;5.38;;;-0.30;99.90;;;;;;5011608;28;20501;-85
2024/01/07 00:47:21;;;;;;;9.30;4.93;;;-0.30;99.90;;;;;;4997834;28;20093;-86
2024/01/07 00:49:48;;;;;;;10.90;5.35;;;-0.30;99.90;;;;;;4998697;28;20081;-86
2024/01/07 00:52:14;;;;;;;11.95;5.53;;;-0.30;99.90;;;;;;5005623;28;20038;-85
2024/01/07 00:54:41;;;;;;;10.93;5.55;;;-0.30;99.90;;;;;;5016800;28;20034;-86
2024/01/07 00:57:09;;;;;;;10.43;5.13;;;-0.30;99.90;;;;;;5017352;28;20038;-86
2024/01/07 00:59:36;;;;;;;10.10;5.72;;;0.60;99.90;;;;;;5005763;28;20517;-85
2024/01/07 01:02:03;;;;;;;9.68;5.32;;;-0.40;99.90;;;;;;5017912;28;20042;-85
2024/01/07 01:04:29;;;;;;;10.75;5.65;;;-0.40;99.90;;;;;;5026254;28;20410;-85
2024/01/07 01:06:56;;;;;;;10.98;4.88;;;-0.40;99.90;;;;;;4995132;28;20054;-86
2024/01/07 01:09:23;;;;;;;13.10;5.20;;;-0.40;99.90;;;;;;5024340;28;20553;-85
2024/01/07 01:11:49;;;;;;;10.77;4.93;;;-0.40;99.90;;;;;;5006762;28;20038;-85
2024/01/07 01:14:16;;;;;;;11.05;5.47;;;-0.50;99.90;;;;;;4994764;28;20483;-85
2024/01/07 01:16:43;;;;;;;11.85;5.03;;;-0.50;99.90;;;;;;5035216;28;20490;-86
2024/01/07 01:19:09;;;;;;;10.80;5.30;;;-0.50;99.90;;;;;;4999382;28;20074;-86
2024/01/07 01:21:36;;;;;;;11.48;5.20;;;-0.50;99.90;;;;;;4994634;28;20475;-86
2024/01/07 01:24:03;;;;;;;9.20;4.90;;;-0.40;99.90;;;;;;4994788;28;20046;-86
2024/01/07 01:26:29;;;;;;;10.43;4.65;;;-0.50;99.90;;;;;;4995992;28;20042;-85
2024/01/07 01:28:56;;;;;;;11.10;4.93;;;-0.50;99.90;;;;;;4998397;28;20039;-86
2024/01/07 01:31:22;;;;;;;8.95;4.35;;;-0.50;99.90;;;;;;5014331;28;20392;-86
2024/01/07 01:33:49;;;;;;;10.27;5.00;;;-0.40;99.90;;;;;;5014729;28;20073;-86
2024/01/07 01:36:15;;;;;;;7.97;4.03;;;-0.50;99.90;;;;;;4998460;28;20062;-85
2024/01/07 01:38:42;;;;;;;9.73;5.15;;;-0.40;99.90;;;;;;5014118;28;20041;-84
2024/01/07 01:41:09;;;;;;;9.73;4.32;;;-0.50;99.90;;;;;;5014208;28;20445;-86
2024/01/07 01:43:36;;;;;;;9.18;4.70;;;-0.40;99.90;;;;;;4998415;28;20037;-86
2024/01/07 01:46:02;;;;;;;7.10;3.80;;;-0.50;99.90;;;;;;4998149;28;20106;-85
2024/01/07 01:48:29;;;;;;;8.85;4.20;;;-0.50;99.90;;;;;;4993818;28;20051;-85
2024/01/07 01:50:57;;;;;;;8.50;4.13;;;-0.50;99.90;;;;;;5013994;28;20078;-86
2024/01/07 01:53:27;;;;;;;10.07;3.97;;;-0.50;99.90;;;;;;5000974;28;20399;-85
2024/01/07 01:55:56;;;;;;;11.98;4.53;;;-0.50;99.90;;;;;;4982071;28;20434;-85
2024/01/07 01:58:23;;;;;;;9.15;4.35;;;-0.50;99.90;;;;;;4995508;28;20038;-85
2024/01/07 02:00:50;;;;;;;10.30;4.30;;;-0.50;99.90;;;;;;4997826;28;20038;-86
2024/01/07 02:03:18;;;;;;;7.40;3.90;;;-0.50;99.90;;;;;;5015314;28;20101;-85
2024/01/07 02:05:45;;;;;;;8.52;4.18;;;-0.50;99.90;;;;;;4994730;28;20054;-86
2024/01/07 02:08:12;;;;;;;8.57;4.18;;;-0.50;99.90;;;;;;4994095;28;20577;-85
2024/01/07 02:10:38;;;;;;;9.05;4.13;;;-0.50;99.90;;;;;;4994167;28;20050;-85
2024/01/07 02:13:05;;;;;;;9.80;4.00;;;-0.50;99.90;;;;;;4994242;28;20483;-86
2024/01/07 02:15:33;;;;;;;8.45;3.85;;;-0.50;99.90;;;;;;5010502;28;20066;-84
2024/01/07 02:18:00;;;;;;;7.85;3.58;;;-0.50;99.90;;;;;;5010169;28;20085;-86
2024/01/07 02:20:26;;;;;;;9.55;3.97;;;-0.50;99.90;;;;;;4984041;29;20457;-85
2024/01/07 02:22:53;;;;;;;6.95;3.53;;;-0.50;99.90;;;;;;4990705;29;20122;-85
2024/01/07 02:25:20;;;;;;;6.25;3.53;;;-0.20;99.90;;;;;;5013348;28;20046;-85
2024/01/07 02:27:46;;;;;;;6.72;3.38;;;-0.50;99.90;;;;;;4981037;28;20081;-85
2024/01/07 02:30:13;;;;;;;9.35;3.90;;;-0.50;99.90;;;;;;5036075;28;20478;-86
2024/01/07 02:32:40;;;;;;;9.20;3.70;;;-0.60;99.90;;;;;;5017707;28;20052;-84
2024/01/07 02:35:07;;;;;;;6.25;3.55;;;-0.50;99.90;;;;;;5014670;28;20031;-84
2024/01/07 02:37:34;;;;;;;7.63;3.70;;;-0.50;99.90;;;;;;5020091;28;20409;-85
2024/01/07 02:40:01;;;;;;;8.48;3.53;;;-0.50;99.90;;;;;;4994240;28;20093;-85
2024/01/07 02:42:27;;;;;;;8.57;3.85;;;-0.50;99.90;;;;;;4999156;28;20035;-85
2024/01/07 02:44:54;;;;;;;6.50;3.20;;;-0.50;99.90;;;;;;4999360;28;20038;-86
2024/01/07 02:47:20;;;;;;;7.28;3.40;;;-0.50;99.90;;;;;;4994585;28;20043;-85
2024/01/07 02:49:47;;;;;;;6.03;3.40;;;-0.50;99.90;;;;;;5012937;28;20073;-84
2024/01/07 02:52:14;;;;;;;7.20;2.88;;;-0.50;99.90;;;;;;5026075;28;20124;-85
2024/01/07 02:54:40;;;;;;;8.10;3.00;;;-0.20;99.90;;;;;;5003148;28;20121;-85
2024/01/07 02:57:07;;;;;;;7.65;3.35;;;-0.60;99.90;;;;;;5013577;28;20398;-86
2024/01/07 02:59:34;;;;;;;7.60;3.25;;;-0.40;99.90;;;;;;4999129;28;20045;-85
2024/01/07 03:02:00;;;;;;;6.97;3.08;;;-0.60;99.90;;;;;;5006369;28;20042;-85
2024/01/07 03:04:27;;;;;;;6.07;3.08;;;-0.60;99.90;;;;;;4996656;28;20077;-85
2024/01/07 03:06:53;;;;;;;7.20;2.70;;;-0.60;99.90;;;;;;4996513;28;20034;-85
2024/01/07 03:09:20;;;;;;;6.25;2.88;;;-0.60;99.90;;;;;;4996572;28;20046;-85
2024/01/07 03:11:47;;;;;;;6.35;2.90;;;-0.60;99.90;;;;;;5003314;28;20549;-85
2024/01/07 03:14:16;;;;;;;8.00;2.88;;;-0.60;99.90;;;;;;5012325;28;20109;-85
2024/01/07 03:16:43;;;;;;;4.85;2.60;;;-0.60;99.90;;;;;;4996319;28;20541;-86
2024/01/07 03:19:09;;;;;;;8.32;3.42;;;-0.60;99.90;;;;;;4999249;28;20107;-84
2024/01/07 03:21:36;;;;;;;4.47;2.70;;;-0.60;99.90;;;;;;5005899;28;20034;-85
2024/01/07 03:24:03;;;;;;;4.45;2.63;;;-0.60;99.90;;;;;;5013020;28;20479;-85
2024/01/07 03:26:32;;;;;;;7.38;3.15;;;-0.60;99.90;;;;;;5012331;28;20034;-85
2024/01/07 03:28:59;;;;;;;4.95;2.70;;;-0.60;99.90;;;;;;5012077;28;20034;-85
2024/01/07 03:31:26;;;;;;;4.95;2.50;;;-0.60;99.90;;;;;;4996047;28;20038;-85
2024/01/07 03:33:53;;;;;;;7.15;2.88;;;-0.60;99.90;;;;;;5012527;28;20049;-85
2024/01/07 03:36:20;;;;;;;4.43;2.75;;;-0.60;99.90;;;;;;5021761;28;20041;-85
2024/01/07 03:38:47;;;;;;;5.50;2.72;;;0.10;99.90;;;;;;4978607;28;20065;-85
2024/01/07 03:41:18;;;;;;;8.35;2.70;;;-0.60;99.90;;;;;;5001390;28;20051;-85
2024/01/07 03:43:48;;;;;;;5.68;2.72;;;-0.60;99.90;;;;;;5019200;28;20053;-85
2024/01/07 03:46:16;;;;;;;7.68;2.47;;;-0.60;99.90;;;;;;5001246;28;20038;-84
2024/01/07 03:48:43;;;;;;;6.05;2.65;;;-0.50;99.90;;;;;;4994708;28;20050;-85
2024/01/07 03:51:09;;;;;;;5.20;2.60;;;-0.50;99.90;;;;;;4995523;28;20149;-85
2024/01/07 03:53:36;;;;;;;4.85;2.17;;;0.70;99.90;;;;;;5008682;28;20121;-85
2024/01/07 03:56:03;;;;;;;4.30;2.22;;;-0.60;99.90;;;;;;4995856;28;20046;-85
2024/01/07 03:58:30;;;;;;;8.98;2.70;;;-0.50;99.90;;;;;;4990343;28;20055;-84
2024/01/07 04:00:56;;;;;;;4.97;2.40;;;-0.60;99.90;;;;;;5032355;28;20490;-84
2024/01/07 04:03:23;;;;;;;5.85;2.20;;;-0.60;99.90;;;;;;4991123;28;20154;-85
2024/01/07 04:05:49;;;;;;;5.35;2.03;;;-0.60;99.90;;;;;;5001516;28;20129;-85
2024/01/07 04:08:16;;;;;;;6.07;2.33;;;-0.60;99.90;;;;;;5004264;28;20069;-84
2024/01/07 04:10:42;;;;;;;6.82;2.20;;;-0.60;99.90;;;;;;5021313;28;20042;-84
2024/01/07 04:13:09;;;;;;;4.97;2.40;;;-0.60;99.90;;;;;;4995617;28;20402;-85
2024/01/07 04:15:36;;;;;;;5.15;2.22;;;-0.60;99.90;;;;;;4995320;28;20039;-85
2024/01/07 04:18:04;;;;;;;4.25;1.90;;;-0.60;99.90;;;;;;4995285;28;20509;-85
2024/01/07 04:20:31;;;;;;;4.57;2.08;;;-0.60;99.90;;;;;;4995388;28;20046;-85
2024/01/07 04:22:57;;;;;;;5.45;2.30;;;-0.60;99.90;;;;;;4995799;28;20121;-86
2024/01/07 04:25:24;;;;;;;4.90;1.80;;;-0.60;99.90;;;;;;4994972;28;20145;-85
2024/01/07 04:27:51;;;;;;;4.88;2.10;;;-0.60;99.90;;;;;;5015655;28;20458;-85
2024/01/07 04:30:18;;;;;;;3.42;1.95;;;-0.60;99.90;;;;;;5015111;28;20073;-85
2024/01/07 04:32:45;;;;;;;5.05;2.30;;;0.60;99.90;;;;;;5011054;28;20112;-84
2024/01/07 04:35:12;;;;;;;3.72;1.70;;;-0.60;99.90;;;;;;4984869;28;20038;-84
2024/01/07 04:37:38;;;;;;;4.70;2.25;;;-0.60;99.90;;;;;;5005223;28;20087;-85
2024/01/07 04:40:05;;;;;;;6.85;1.75;;;-0.60;99.90;;;;;;4994658;28;20042;-84
2024/01/07 04:42:32;;;;;;;5.20;1.80;;;-0.60;99.90;;;;;;5010964;28;20112;-85
2024/01/07 04:44:59;;;;;;;6.15;1.90;;;-0.60;99.90;;;;;;4995129;28;20077;-85
2024/01/07 04:47:36;;;;;;;6.07;1.80;;;-0.60;99.90;;;;;;5001591;28;20042;-85
2024/01/07 04:50:04;;;;;;;3.90;1.75;;;-0.60;99.90;;;;;;5011849;28;20054;-86
2024/01/07 04:52:30;;;;;;;4.70;1.70;;;-0.60;99.90;;;;;;5011088;28;20088;-85
2024/01/07 04:54:57;;;;;;;5.68;1.90;;;-0.60;99.90;;;;;;5013668;28;20124;-84
2024/01/07 04:57:23;;;;;;;5.32;1.95;;;-0.60;99.90;;;;;;5005304;28;20038;-86
2024/01/07 04:59:51;;;;;;;6.32;1.80;;;-0.60;99.90;;;;;;4994667;28;20064;-86
2024/01/07 05:02:17;;;;;;;4.15;1.67;;;-0.60;99.90;;;;;;5014132;28;20050;-86
2024/01/07 05:04:44;;;;;;;5.13;1.77;;;-0.60;99.90;;;;;;4999167;28;20053;-84
2024/01/07 05:07:11;;;;;;;3.88;1.77;;;-0.60;99.90;;;;;;4998953;28;20046;-85
2024/01/07 05:09:37;;;;;;;4.25;1.65;;;-0.60;99.90;;;;;;5000343;28;20116;-86
2024/01/07 05:12:04;;;;;;;4.60;1.45;;;-0.60;99.90;;;;;;5013025;28;20070;-85
2024/01/07 05:14:32;;;;;;;5.75;2.85;;;-0.60;99.90;;;;;;4998430;28;20117;-85
2024/01/07 05:16:58;;;;;;;6.38;1.60;;;-0.60;99.90;;;;;;4998824;28;20061;-85
2024/01/07 05:19:25;;;;;;;3.15;1.45;;;-0.60;99.90;;;;;;4998660;28;20073;-86
2024/01/07 05:21:53;;;;;;;4.15;1.65;;;-0.60;99.90;;;;;;4998449;28;20042;-85
2024/01/07 05:24:19;;;;;;;3.67;1.60;;;-0.60;99.90;;;;;;4999546;28;20041;-86
2024/01/07 05:26:46;;;;;;;5.07;1.65;;;-0.60;99.90;;;;;;4998577;28;20042;-84
2024/01/07 05:29:13;;;;;;;3.58;1.50;;;-0.60;99.90;;;;;;4997447;28;20551;-85
2024/01/07 05:31:40;;;;;;;4.25;1.70;;;-0.60;99.90;;;;;;4985632;28;20045;-86
2024/01/07 05:34:06;;;;;;;4.60;1.70;;;-0.60;99.90;;;;;;5017766;28;20038;-86
2024/01/07 05:36:33;;;;;;;4.32;1.70;;;-0.60;99.90;;;;;;4999550;28;20121;-85
2024/01/07 05:39:00;;;;;;;4.93;1.40;;;-0.60;99.90;;;;;;5005776;28;20541;-86
2024/01/07 05:41:27;;;;;;;3.40;1.50;;;-0.60;99.90;;;;;;5005143;28;20042;-86
2024/01/07 05:43:53;;;;;;;5.03;1.70;;;-0.60;99.90;;;;;;5009932;28;20546;-85
2024/01/07 05:46:20;;;;;;;4.57;1.60;;;-0.60;99.90;;;;;;5021492;28;20397;-85
2024/01/07 05:48:48;;;;;;;4.10;1.60;;;0.40;99.90;;;;;;4989361;29;20047;-84
2024/01/07 05:51:15;;;;;;;3.95;1.52;;;-0.50;99.90;;;;;;4991268;29;20039;-85
2024/01/07 05:53:43;;;;;;;4.78;1.52;;;-0.60;99.90;;;;;;5009707;28;20062;-86
2024/01/07 05:56:10;;;;;;;6.20;1.60;;;-0.60;99.90;;;;;;4995055;28;20045;-85
2024/01/07 05:58:36;;;;;;;4.75;2.20;;;-0.60;99.90;;;;;;4986995;28;20407;-86
2024/01/07 06:01:03;;;;;;;3.78;1.58;;;-0.60;99.90;;;;;;5012014;28;20043;-85
2024/01/07 06:03:30;;;;;;;6.53;1.83;;;-0.60;99.90;;;;;;4994516;28;20043;-86
2024/01/07 06:05:58;;;;;;;3.60;1.55;;;-0.60;99.90;;;;;;4993430;28;20049;-86
2024/01/07 06:08:28;;;;;;;3.85;1.65;;;0.10;99.90;;;;;;5022459;28;20043;-85
2024/01/07 06:10:54;;;;;;;4.47;1.50;;;0.60;99.90;;;;;;4993978;28;20045;-86
2024/01/07 06:13:21;;;;;;;4.80;1.60;;;-0.60;99.90;;;;;;4994280;28;20034;-86
2024/01/07 06:15:48;;;;;;;5.88;1.55;;;-0.60;99.90;;;;;;4998033;28;20046;-86
2024/01/07 06:18:14;;;;;;;5.18;1.50;;;-0.60;99.90;;;;;;4994495;28;20047;-86
2024/01/07 06:20:41;;;;;;;8.23;1.48;;;0.00;99.90;;;;;;5003891;28;20050;-86
2024/01/07 06:23:08;;;;;;;3.60;1.85;;;-0.60;99.90;;;;;;4994547;28;20078;-86
2024/01/07 06:25:34;;;;;;;4.43;1.70;;;-0.60;99.90;;;;;;5005515;28;20129;-84
2024/01/07 06:28:01;;;;;;;3.15;1.30;;;-0.60;99.90;;;;;;5003755;28;20078;-85
2024/01/07 06:30:28;;;;;;;3.22;1.40;;;-0.60;99.90;;;;;;5009815;28;20121;-86
2024/01/07 06:32:55;;;;;;;5.07;1.40;;;-0.60;99.90;;;;;;4994198;28;20483;-86
2024/01/07 06:35:22;;;;;;;4.88;1.35;;;-0.60;99.90;;;;;;4998628;28;20122;-86
2024/01/07 06:37:49;;;;;;;3.70;1.58;;;-0.60;99.90;;;;;;5045935;28;20121;-86
2024/01/07 06:40:16;;;;;;;4.95;1.55;;;-0.60;99.90;;;;;;4995852;28;20491;-84
2024/01/07 06:42:43;;;;;;;4.95;1.80;;;-0.60;99.90;;;;;;5009786;28;20042;-86
2024/01/07 06:45:10;;;;;;;4.13;1.70;;;-0.60;99.90;;;;;;4993943;28;20045;-86
2024/01/07 06:47:37;;;;;;;4.97;1.58;;;-0.60;99.90;;;;;;5011042;28;20046;-86
2024/01/07 06:50:05;;;;;;;3.78;1.77;;;-0.60;99.90;;;;;;5013033;28;20049;-86
2024/01/07 06:52:32;;;;;;;2.70;1.33;;;-0.60;99.90;;;;;;5013292;28;20035;-85
2024/01/07 06:54:58;;;;;;;4.45;1.60;;;-0.60;99.90;;;;;;5021081;28;20038;-85
2024/01/07 06:57:25;;;;;;;3.35;1.40;;;-0.60;99.90;;;;;;4996792;28;20046;-85
2024/01/07 06:59:52;;;;;;;5.15;1.95;;;-0.70;99.90;;;;;;5009841;28;20074;-86
2024/01/07 07:02:20;;;;;;;4.20;1.50;;;-0.70;99.90;;;;;;5000023;28;20100;-86
2024/01/07 07:04:47;;;;;;;4.60;1.42;;;-0.80;99.90;;;;;;5013292;28;20046;-85
2024/01/07 07:07:14;;;;;;;4.75;1.35;;;-0.80;99.90;;;;;;5013055;28;20050;-86
2024/01/07 07:09:40;;;;;;;3.55;1.40;;;-0.80;99.90;;;;;;4996916;28;20125;-86
2024/01/07 07:12:08;;;;;;;6.57;1.50;;;-0.90;99.90;;;;;;4997985;28;20414;-86
2024/01/07 07:14:34;;;;;;;3.45;1.25;;;-0.90;99.90;;;;;;5025452;28;20133;-86
2024/01/07 07:17:01;;;;;;;4.50;1.35;;;-1.00;99.90;;;;;;4996759;28;20074;-87
2024/01/07 07:19:27;;;;;;;7.20;1.60;;;-1.00;99.90;;;;;;4996763;28;20050;-87
2024/01/07 07:21:54;;;;;;;5.38;1.52;;;-1.00;99.90;;;;;;5003126;28;20498;-86
2024/01/07 07:24:22;;;;;;;6.32;1.80;;;-1.00;99.90;;;;;;5012049;28;20042;-85
2024/01/07 07:26:48;;;;;;;3.35;1.30;;;-1.10;99.90;;;;;;5012442;28;20047;-86
2024/01/07 07:29:15;;;;;;;4.07;1.67;;;-1.10;99.90;;;;;;4998391;28;20048;-86
2024/01/07 07:31:41;;;;;;;4.57;1.40;;;-1.20;99.90;;;;;;5030563;28;20064;-86
2024/01/07 07:34:09;;;;;;;6.93;1.73;;;-1.20;99.90;;;;;;5003065;28;20038;-86
2024/01/07 07:36:35;;;;;;;4.35;1.42;;;-1.20;99.90;;;;;;5016602;28;20414;-85
2024/01/07 07:39:02;;;;;;;3.47;1.40;;;-1.20;99.90;;;;;;5000890;28;20034;-86
2024/01/07 07:41:29;;;;;;;3.30;1.48;;;-1.20;99.90;;;;;;5012569;28;20038;-86
2024/01/07 07:43:55;;;;;;;3.30;1.70;;;-1.20;99.90;;;;;;5001753;28;20038;-86
2024/01/07 07:46:22;;;;;;;4.55;1.40;;;-1.30;99.90;;;;;;4995745;28;20076;-79
2024/01/07 07:48:49;;;;;;;2.70;1.27;;;-1.20;99.90;;;;;;4998222;28;20054;-86
2024/01/07 07:51:15;;;;;;;4.63;1.63;;;-1.20;99.90;;;;;;4980095;28;20129;-86
2024/01/07 07:53:42;;;;;;;2.60;1.30;;;-1.20;99.90;;;;;;5015070;28;20088;-86
2024/01/07 07:56:09;;;;;;;3.25;1.33;;;-1.20;99.90;;;;;;4995497;28;20080;-86
2024/01/07 07:58:35;;;;;;;3.65;1.10;;;-1.10;99.90;;;;;;4996430;28;20040;-86
2024/01/07 08:01:02;;;;;;;5.47;1.67;;;-1.10;99.90;;;;;;4995366;28;20042;-86
2024/01/07 08:03:29;;;;;;;3.10;1.63;;;-1.00;99.90;;;;;;5000693;28;20034;-87
2024/01/07 08:05:55;;;;;;;5.03;1.58;;;-1.00;99.90;;;;;;5039532;28;20061;-85
2024/01/07 08:08:22;;;;;;;2.45;1.23;;;-1.00;99.90;;;;;;4994913;28;20038;-85
2024/01/07 08:10:48;;;;;;;5.97;1.60;;;-0.90;99.90;;;;;;5003849;28;20050;-86
2024/01/07 08:13:16;;;;;;;3.78;1.60;;;-0.90;99.90;;;;;;4990333;28;20047;-87
2024/01/07 08:15:43;;;;;;;8.73;2.03;;;-0.90;99.90;;;;;;5014001;28;20085;-87
2024/01/07 08:18:09;;;;;;;4.00;1.50;;;-0.90;99.90;;;;;;4999566;28;20050;-86
2024/01/07 08:20:36;;;;;;;2.35;1.35;;;-0.90;99.90;;;;;;4994894;28;20046;-86
2024/01/07 08:23:03;;;;;;;4.00;1.67;;;-0.90;99.90;;;;;;4986241;28;20130;-87
2024/01/07 08:25:29;;;;;;;3.67;1.55;;;-0.80;99.90;;;;;;5011094;28;20085;-86
2024/01/07 08:27:56;;;;;;;3.30;1.40;;;-0.80;99.90;;;;;;5006896;28;20494;-85
2024/01/07 08:30:23;;;;;;;4.60;1.80;;;-0.80;99.90;;;;;;4989169;28;20046;-86
2024/01/07 08:32:50;;;;;;;3.72;1.40;;;-0.80;99.90;;;;;;5011252;28;20073;-86
2024/01/07 08:35:16;;;;;;;4.68;1.77;;;-0.70;99.90;;;;;;5002643;28;20046;-86
2024/01/07 08:37:44;;;;;;;3.10;1.50;;;-0.60;99.90;;;;;;5019371;28;20402;-85
2024/01/07 08:40:13;;;;;;;4.57;1.48;;;-0.60;99.90;;;;;;5030273;28;20041;-86
2024/01/07 08:42:40;;;;;;;4.70;1.80;;;-0.60;99.90;;;;;;5005496;28;20077;-86
2024/01/07 08:45:07;;;;;;;3.17;1.52;;;-0.60;99.90;;;;;;5020174;28;20119;-85
2024/01/07 08:47:35;;;;;;;3.67;1.63;;;-0.60;99.90;;;;;;5005039;28;20189;-85
2024/01/07 08:50:03;;;;;;;5.35;1.42;;;-0.50;99.90;;;;;;5011100;28;20054;-86
2024/01/07 08:52:29;;;;;;;5.47;1.70;;;-0.50;99.90;;;;;;5013705;28;20042;-85
2024/01/07 08:54:56;;;;;;;4.78;1.70;;;-0.50;99.90;;;;;;4988217;28;20036;-85
2024/01/07 08:57:23;;;;;;;4.75;1.58;;;-0.50;99.90;;;;;;4993494;28;20043;-86
2024/01/07 08:59:50;;;;;;;3.63;1.48;;;-0.40;99.90;;;;;;4992712;28;20075;-86
2024/01/07 09:02:16;;;;;;;3.17;1.50;;;-0.40;99.90;;;;;;4999072;28;20041;-86
2024/01/07 09:04:43;;;;;;;4.93;1.60;;;-0.40;99.90;;;;;;4991186;28;20089;-85
2024/01/07 09:07:10;;;;;;;4.60;1.60;;;-0.40;99.90;;;;;;4999419;28;20057;-86
2024/01/07 09:09:37;;;;;;;2.90;1.17;;;-0.40;99.90;;;;;;4982141;28;20043;-85
2024/01/07 09:12:04;;;;;;;3.72;1.40;;;-0.30;99.90;;;;;;4996958;28;20038;-85
2024/01/07 09:14:30;;;;;;;3.78;1.50;;;-0.30;99.90;;;;;;4993226;28;20033;-86
2024/01/07 09:16:57;;;;;;;3.22;1.40;;;0.80;99.90;;;;;;4999826;28;20041;-85
2024/01/07 09:19:24;;;;;;;2.13;1.08;;;-0.30;99.90;;;;;;4997788;28;20045;-86
2024/01/07 09:21:50;;;;;;;3.33;1.38;;;-0.20;99.90;;;;;;4986466;28;20537;-85
2024/01/07 09:24:18;;;;;;;5.50;1.50;;;-0.20;99.90;;;;;;5014761;28;20166;-86
2024/01/07 09:26:46;;;;;;;3.95;1.45;;;-0.20;99.90;;;;;;4984891;28;20039;-86
2024/01/07 09:29:13;;;;;;;4.10;1.35;;;-0.20;99.90;;;;;;5005284;28;20402;-86
2024/01/07 09:31:40;;;;;;;4.13;1.50;;;1.00;99.90;;;;;;4991006;28;20046;-84
2024/01/07 09:34:07;;;;;;;3.30;1.40;;;-0.10;99.90;;;;;;4982920;28;20049;-85
2024/01/07 09:36:35;;;;;;;4.15;1.30;;;-0.10;99.90;;;;;;5000994;28;20044;-84
2024/01/07 09:39:04;;;;;;;3.80;1.42;;;-0.10;99.90;;;;;;4994192;28;20066;-87
2024/01/07 09:41:31;;;;;;;4.95;1.60;;;-0.10;99.90;;;;;;4994241;28;20070;-85
2024/01/07 09:43:59;;;;;;;3.97;1.63;;;-0.10;99.90;;;;;;5011294;28;20101;-86
2024/01/07 09:46:28;;;;;;;3.17;1.45;;;0.00;99.90;;;;;;5034869;28;20567;-85
2024/01/07 09:48:55;;;;;;;3.15;1.42;;;1.10;99.90;;;;;;5017334;28;20093;-85
2024/01/07 09:51:23;;;;;;;6.57;2.33;;;0.00;99.90;;;;;;5020878;28;20162;-84
2024/01/07 09:53:55;;;;;;;4.85;2.15;;;0.00;99.90;;;;;;5000329;28;20057;-84
2024/01/07 09:56:38;;;;;;;5.80;2.53;;;0.10;99.90;;;;;;4998367;28;20104;-83
2024/01/07 09:59:06;;;;;;;4.90;2.47;;;0.00;99.90;;;;;;4987928;28;20042;-84
2024/01/07 10:01:35;;;;;;;8.05;2.22;;;0.10;99.90;;;;;;5013444;28;20042;-84
2024/01/07 10:04:02;;;;;;;3.70;1.58;;;0.10;99.90;;;;;;5008688;28;20517;-82
2024/01/07 10:06:28;;;;;;;4.13;1.80;;;0.10;99.90;;;;;;4999459;28;20042;-85
2024/01/07 10:08:55;;;;;;;3.85;1.60;;;0.20;99.90;;;;;;5029888;28;20042;-83
2024/01/07 10:11:22;;;;;;;5.35;1.85;;;0.10;99.90;;;;;;4997402;28;20045;-83
2024/01/07 10:13:51;;;;;;;4.55;1.48;;;0.20;99.90;;;;;;5013169;28;20364;-84
2024/01/07 10:16:17;;;;;;;6.35;1.60;;;0.20;99.90;;;;;;4998990;28;20043;-84
2024/01/07 10:18:44;;;;;;;3.30;1.60;;;0.20;99.90;;;;;;5008511;28;20453;-82
2024/01/07 10:21:11;;;;;;;4.22;1.88;;;0.20;99.90;;;;;;5011143;28;20038;-84
2024/01/07 10:23:37;;;;;;;2.50;1.30;;;0.20;99.90;;;;;;4996812;28;20136;-83
2024/01/07 10:26:05;;;;;;;3.15;1.50;;;0.20;99.90;;;;;;5002173;28;20042;-84
2024/01/07 10:28:32;;;;;;;4.25;1.42;;;0.30;99.90;;;;;;5018710;28;20050;-85
2024/01/07 10:30:59;;;;;;;3.58;1.60;;;0.30;99.90;;;;;;4996865;28;20458;-84
2024/01/07 10:33:31;;;;;;;2.80;1.50;;;0.40;99.90;;;;;;4993959;28;20499;-83
2024/01/07 10:36:04;;;;;;;3.13;1.48;;;0.40;99.90;;;;;;4994957;28;20042;-84
2024/01/07 10:38:33;;;;;;;3.45;1.70;;;0.40;99.90;;;;;;5015555;28;20070;-83
2024/01/07 10:41:00;;;;;;;4.78;2.03;;;0.40;99.90;;;;;;4989294;28;20068;-85
2024/01/07 10:43:29;;;;;;;5.95;1.70;;;0.50;99.90;;;;;;5001757;28;20117;-82
2024/01/07 10:46:03;;;;;;;4.88;1.90;;;1.70;99.90;;;;;;5001419;28;20065;-83
2024/01/07 10:48:34;;;;;;;4.68;1.70;;;0.60;99.90;;;;;;5004622;28;20054;-84
2024/01/07 10:51:01;;;;;;;6.00;1.90;;;1.80;99.90;;;;;;4997107;28;20101;-83
2024/01/07 10:53:32;;;;;;;5.43;1.80;;;0.60;99.90;;;;;;5016363;28;20414;-84
2024/01/07 10:56:11;;;;;;;6.10;1.48;;;0.60;99.90;;;;;;5004682;28;20199;-82
2024/01/07 10:58:39;;;;;;;5.88;1.65;;;0.60;99.90;;;;;;4994989;28;20093;-83
2024/01/07 11:01:07;;;;;;;4.75;2.00;;;0.60;99.90;;;;;;5001582;28;20069;-85
2024/01/07 11:04:20;;;;;;;5.18;2.28;;;0.50;99.90;;;;;;5036076;28;20046;-84
2024/01/07 11:07:18;;;;;;;7.50;2.30;;;0.50;99.90;;;;;;4991680;28;20050;-82
2024/01/07 11:10:00;;;;;;;6.57;2.53;;;0.50;99.90;;;;;;4994506;28;20148;-83
2024/01/07 11:12:27;;;;;;;9.75;3.00;;;0.50;99.90;;;;;;5006115;28;20038;-82
2024/01/07 11:14:54;;;;;;;6.30;2.50;;;0.50;99.90;;;;;;5012255;28;20042;-84
2024/01/07 11:17:46;;;;;;;5.50;2.85;;;0.40;99.90;;;;;;4992737;28;20502;-84
2024/01/07 11:20:19;;;;;;;7.53;3.00;;;0.40;99.90;;;;;;5018155;28;20040;-83
2024/01/07 11:22:46;;;;;;;6.65;2.97;;;0.40;99.90;;;;;;4996881;28;20042;-80
2024/01/07 11:25:32;;;;;;;6.18;2.90;;;0.50;99.90;;;;;;5028757;28;20072;-85
2024/01/07 11:28:01;;;;;;;9.05;3.10;;;0.70;99.90;;;;;;5018892;28;20046;-83
2024/01/07 11:30:28;;;;;;;7.65;2.85;;;0.50;99.90;;;;;;4991699;28;20035;-83
2024/01/07 11:32:59;;;;;;;5.32;2.50;;;0.40;99.90;;;;;;4983028;28;20045;-84
2024/01/07 11:35:57;;;;;;;5.68;3.05;;;0.40;99.90;;;;;;5011840;28;20037;-83
2024/01/07 11:38:24;;;;;;;8.25;3.50;;;0.40;99.90;;;;;;5000877;28;20045;-83
2024/01/07 11:40:51;;;;;;;6.28;2.72;;;0.40;99.90;;;;;;5029051;28;20042;-83
2024/01/07 11:43:18;;;;;;;5.55;3.03;;;0.40;99.90;;;;;;5011833;28;20117;-83
2024/01/07 11:45:45;;;;;;;7.63;3.55;;;0.40;99.90;;;;;;4994567;28;20061;-83
2024/01/07 11:48:12;;;;;;;9.75;3.22;;;0.30;99.90;;;;;;5020571;28;20060;-83
2024/01/07 11:50:39;;;;;;;6.20;2.83;;;0.30;99.90;;;;;;5006391;28;20045;-83
2024/01/07 11:53:05;;;;;;;9.30;3.38;;;0.30;99.90;;;;;;5025451;28;20449;-84
2024/01/07 11:55:34;;;;;;;8.77;3.28;;;0.30;99.90;;;;;;5011097;28;20117;-83
2024/01/07 11:58:02;;;;;;;7.13;2.92;;;0.30;99.90;;;;;;4995486;28;20430;-83
2024/01/07 12:00:36;;;;;;;6.25;2.70;;;0.30;99.90;;;;;;4994144;28;20074;-84
2024/01/07 12:03:03;;;;;;;6.95;2.88;;;1.10;99.90;;;;;;5027924;28;20042;-83
2024/01/07 12:05:30;;;;;;;6.93;2.60;;;0.30;99.90;;;;;;5011129;28;20410;-84
2024/01/07 12:07:57;;;;;;;8.88;3.20;;;0.30;99.90;;;;;;5026458;28;20041;-83
2024/01/07 12:10:24;;;;;;;10.52;3.10;;;0.30;99.90;;;;;;5003475;28;20045;-84
2024/01/07 12:12:51;;;;;;;5.90;2.83;;;0.30;99.90;;;;;;4999814;28;20038;-83
2024/01/07 12:15:20;;;;;;;6.93;2.55;;;0.30;99.90;;;;;;5003255;28;20066;-83
2024/01/07 12:17:58;;;;;;;7.00;2.38;;;0.30;99.90;;;;;;4989500;28;20082;-83
2024/01/07 12:20:25;;;;;;;7.78;2.60;;;0.30;99.90;;;;;;5021980;28;20053;-83
2024/01/07 12:22:55;;;;;;;6.28;2.95;;;0.40;99.90;;;;;;5005743;28;20092;-83
2024/01/07 12:25:23;;;;;;;7.70;3.20;;;0.40;99.90;;;;;;5012911;28;20046;-82
2024/01/07 12:27:52;;;;;;;6.50;2.83;;;0.40;99.90;;;;;;4986744;28;20058;-83
2024/01/07 12:30:20;;;;;;;6.47;2.95;;;0.50;99.90;;;;;;5014876;28;20104;-84
2024/01/07 12:32:46;;;;;;;5.88;2.90;;;0.50;99.90;;;;;;5004661;28;20380;-84
2024/01/07 12:35:13;;;;;;;6.45;2.85;;;0.50;99.90;;;;;;5016418;28;20096;-83
2024/01/07 12:37:40;;;;;;;7.32;3.17;;;0.60;99.90;;;;;;5002162;28;20030;-82
2024/01/07 12:40:09;;;;;;;7.22;3.58;;;0.50;99.90;;;;;;4995089;28;20042;-84
2024/01/07 12:42:39;;;;;;;8.52;3.13;;;0.50;99.90;;;;;;4994298;28;20398;-84
2024/01/07 12:45:06;;;;;;;6.47;2.50;;;0.50;99.90;;;;;;4994922;28;20038;-84
2024/01/07 12:47:33;;;;;;;6.95;2.40;;;0.40;99.90;;;;;;4985855;28;20447;-83
2024/01/07 12:50:00;;;;;;;9.60;2.90;;;1.40;99.90;;;;;;4998757;28;20046;-84